Time;durP1;ratioP1;P1;durP2;ratioP2;P2;SDS_P1;SDS_P2;PMS_P1;PMS_P2;Temp;Humidity;BMP_temperature;BMP_pressure;BME280_temperature;BME280_humidity;BME280_pressure;Samples;Min_cycle;Max_cycle;Signal;HPM_P1;HPM_P2
2023/01/05 00:01:51;;;;;;;7.80;2.53;;;9.10;99.90;;;;;;5075737;28;20575;-80
2023/01/05 00:04:17;;;;;;;5.53;3.08;;;9.10;99.90;;;;;;5077541;28;20051;-78
2023/01/05 00:06:43;;;;;;;7.82;2.20;;;9.10;99.90;;;;;;5080962;28;20060;-82
2023/01/05 00:09:14;;;;;;;10.20;2.50;;;9.10;99.90;;;;;;5083534;28;20064;-83
2023/01/05 00:22:51;;;;;;;3.80;1.52;;;9.10;99.90;;;;;;5080725;28;20477;-83
2023/01/05 00:25:22;;;;;;;4.43;2.10;;;9.10;99.90;;;;;;5087250;28;20067;-79
2023/01/05 00:27:50;;;;;;;7.55;2.15;;;9.10;99.90;;;;;;5081292;28;20070;-80
2023/01/05 00:30:18;;;;;;;13.48;2.97;;;9.10;99.90;;;;;;5070129;28;20131;-85
2023/01/05 00:32:44;;;;;;;10.13;2.30;;;9.00;99.90;;;;;;5092654;28;20048;-79
2023/01/05 00:35:12;;;;;;;8.52;2.17;;;9.10;99.90;;;;;;5087193;28;20090;-84
2023/01/05 00:37:39;;;;;;;12.52;3.03;;;9.10;99.90;;;;;;5095082;28;20036;-79
2023/01/05 00:40:16;;;;;;;11.20;2.22;;;9.10;99.90;;;;;;5082312;28;20084;-83
2023/01/05 00:42:42;;;;;;;11.20;2.92;;;9.10;99.90;;;;;;5098218;28;20059;-84
2023/01/05 00:45:10;;;;;;;6.43;1.75;;;9.10;99.90;;;;;;5084424;28;20112;-81
2023/01/05 00:47:36;;;;;;;7.95;1.80;;;9.10;99.90;;;;;;5076847;28;20041;-80
2023/01/05 00:50:02;;;;;;;5.82;2.13;;;9.10;99.90;;;;;;5085800;28;20481;-85
2023/01/05 00:52:28;;;;;;;9.10;2.40;;;9.10;99.90;;;;;;5080087;28;20040;-83
2023/01/05 00:54:54;;;;;;;9.82;2.33;;;9.10;99.90;;;;;;5064781;28;20067;-86
2023/01/05 00:57:19;;;;;;;9.85;2.80;;;9.10;99.90;;;;;;5063842;28;20090;-84
2023/01/05 00:59:45;;;;;;;8.65;2.10;;;9.10;99.90;;;;;;5092380;28;20051;-84
2023/01/05 01:02:11;;;;;;;7.93;2.47;;;9.10;99.90;;;;;;5091190;28;20044;-85
2023/01/05 01:04:36;;;;;;;6.40;2.22;;;9.10;99.90;;;;;;5054011;28;20051;-85
2023/01/05 01:07:03;;;;;;;12.88;2.88;;;9.10;99.90;;;;;;5059335;28;20414;-83
2023/01/05 01:09:29;;;;;;;9.07;3.08;;;9.10;99.90;;;;;;5082507;28;20063;-92
2023/01/05 01:11:55;;;;;;;5.95;1.77;;;9.10;99.90;;;;;;5091872;28;20044;-83
2023/01/05 01:14:21;;;;;;;8.82;2.15;;;9.10;99.90;;;;;;5087269;28;20577;-84
2023/01/05 01:16:47;;;;;;;10.93;2.90;;;9.10;99.90;;;;;;5093288;28;20101;-85
2023/01/05 01:19:15;;;;;;;11.40;2.72;;;9.10;99.90;;;;;;5079500;28;20176;-82
2023/01/05 01:21:41;;;;;;;9.15;1.85;;;9.10;99.90;;;;;;5094526;28;20131;-83
2023/01/05 01:24:07;;;;;;;7.30;2.05;;;9.10;99.90;;;;;;5085757;28;20044;-86
2023/01/05 01:26:33;;;;;;;5.95;2.00;;;9.10;99.90;;;;;;5074208;28;20062;-83
2023/01/05 01:28:59;;;;;;;9.95;2.10;;;9.10;99.90;;;;;;5099296;28;20127;-86
2023/01/05 01:31:24;;;;;;;11.65;2.00;;;9.10;99.90;;;;;;5082440;28;20037;-86
2023/01/05 01:33:50;;;;;;;10.10;2.72;;;9.10;99.90;;;;;;5080860;28;20040;-83
2023/01/05 01:36:16;;;;;;;17.95;3.95;;;9.10;99.90;;;;;;5069861;28;20093;-86
2023/01/05 01:38:42;;;;;;;8.38;2.10;;;9.10;99.90;;;;;;5095123;28;20048;-84
2023/01/05 01:41:07;;;;;;;12.20;2.15;;;9.10;99.90;;;;;;5071802;28;20052;-88
2023/01/05 01:43:54;;;;;;;7.13;2.33;;;9.10;99.90;;;;;;5060630;28;20059;-85
2023/01/05 01:46:21;;;;;;;7.32;2.55;;;9.10;99.90;;;;;;5079069;28;20045;-86
2023/01/05 01:49:02;;;;;;;6.22;2.15;;;9.10;99.90;;;;;;5093055;28;20048;-81
2023/01/05 01:51:40;;;;;;;6.97;2.10;;;9.10;99.90;;;;;;5096402;28;20047;-86
2023/01/05 01:54:08;;;;;;;5.30;1.42;;;9.10;99.90;;;;;;5081949;28;20044;-84
2023/01/05 01:56:46;;;;;;;8.35;2.15;;;9.10;99.90;;;;;;5064323;28;20060;-87
2023/01/05 01:59:13;;;;;;;7.65;1.85;;;9.10;99.90;;;;;;5076427;28;20052;-86
2023/01/05 02:01:39;;;;;;;4.30;1.52;;;9.20;99.90;;;;;;5086899;28;20440;-86
2023/01/05 02:04:06;;;;;;;6.82;1.70;;;9.10;99.90;;;;;;5063828;28;20044;-86
2023/01/05 02:06:32;;;;;;;6.97;1.85;;;9.20;99.90;;;;;;5083786;28;20101;-80
2023/01/05 02:08:58;;;;;;;11.18;2.00;;;9.20;99.90;;;;;;5075660;28;20043;-86
2023/01/05 02:11:32;;;;;;;8.25;2.30;;;9.20;99.90;;;;;;5092256;28;20058;-86
2023/01/05 02:14:17;;;;;;;6.93;2.55;;;9.20;99.90;;;;;;5083946;28;20530;-84
2023/01/05 02:16:48;;;;;;;4.93;1.55;;;9.30;99.90;;;;;;5090295;28;20048;-87
2023/01/05 02:19:23;;;;;;;7.95;2.38;;;9.30;99.90;;;;;;5095750;28;20043;-86
2023/01/05 02:22:19;;;;;;;8.95;1.67;;;9.40;99.90;;;;;;5090544;28;20120;-87
2023/01/05 02:25:26;;;;;;;8.65;2.53;;;9.30;99.90;;;;;;5075743;28;20482;-79
2023/01/05 02:28:09;;;;;;;11.17;2.70;;;9.30;99.90;;;;;;5076756;28;20108;-84
2023/01/05 02:30:58;;;;;;;7.50;2.25;;;9.30;99.90;;;;;;5057423;28;20470;-89
2023/01/05 02:33:53;;;;;;;8.27;1.67;;;9.40;99.90;;;;;;5058613;28;20086;-85
2023/01/05 02:36:43;;;;;;;4.95;2.20;;;9.40;99.90;;;;;;5084924;28;20059;-79
2023/01/05 02:39:18;;;;;;;6.13;1.70;;;9.40;99.90;;;;;;5091387;28;20070;-84
2023/01/05 02:42:17;;;;;;;5.50;2.67;;;9.40;99.90;;;;;;5087246;28;20100;-81
2023/01/05 02:44:43;;;;;;;9.93;2.60;;;9.40;99.90;;;;;;5068376;28;20318;-83
2023/01/05 02:47:24;;;;;;;8.45;2.65;;;9.40;99.90;;;;;;5047306;28;20060;-86
2023/01/05 02:49:54;;;;;;;9.63;2.13;;;9.40;99.90;;;;;;5105084;28;20049;-86
2023/01/05 02:52:21;;;;;;;5.90;1.73;;;9.40;99.90;;;;;;5075685;28;20043;-88
2023/01/05 02:54:59;;;;;;;6.95;1.83;;;9.50;99.90;;;;;;5083644;28;20085;-88
2023/01/05 02:57:46;;;;;;;7.28;2.13;;;9.50;99.90;;;;;;5056523;28;20045;-89
2023/01/05 03:00:34;;;;;;;6.68;2.30;;;9.50;99.90;;;;;;5083278;28;20045;-82
2023/01/05 03:03:17;;;;;;;8.93;2.20;;;9.50;99.90;;;;;;5078005;28;20059;-88
2023/01/05 03:05:53;;;;;;;6.78;2.22;;;9.50;99.90;;;;;;5060565;28;20123;-80
2023/01/05 03:08:21;;;;;;;6.88;2.08;;;9.40;99.90;;;;;;5100163;28;20066;-84
2023/01/05 03:13:55;;;;;;;9.27;2.88;;;9.30;99.90;;;;;;5096411;28;20057;-84
2023/01/05 03:16:26;;;;;;;9.48;2.65;;;9.30;99.90;;;;;;5100186;28;20052;-83
2023/01/05 03:35:32;;;;;;;8.43;2.22;;;9.20;99.90;;;;;;5094290;28;20044;-85
2023/01/05 03:38:30;;;;;;;13.82;2.72;;;9.10;99.90;;;;;;5073403;28;20177;-86
2023/01/05 03:41:01;;;;;;;8.80;2.70;;;9.10;99.90;;;;;;5106465;28;20072;-88
2023/01/05 03:43:27;;;;;;;8.30;2.38;;;9.10;99.90;;;;;;5094012;28;20075;-87
2023/01/05 03:45:55;;;;;;;5.10;1.58;;;9.10;99.90;;;;;;5098407;28;20048;-81
2023/01/05 03:48:22;;;;;;;8.80;3.13;;;9.10;99.90;;;;;;5086921;28;20583;-84
2023/01/05 03:50:48;;;;;;;15.70;3.10;;;9.10;99.90;;;;;;5090218;28;20661;-85
2023/01/05 03:53:15;;;;;;;10.07;2.22;;;9.10;99.90;;;;;;5068238;28;20040;-86
2023/01/05 03:55:40;;;;;;;13.10;2.67;;;9.10;99.90;;;;;;5086903;28;20617;-88
2023/01/05 03:58:06;;;;;;;11.85;3.13;;;9.10;99.90;;;;;;5084215;28;20059;-84
2023/01/05 04:00:32;;;;;;;7.30;1.95;;;9.10;99.90;;;;;;5087446;28;20044;-88
2023/01/05 04:02:58;;;;;;;6.55;2.08;;;9.20;99.90;;;;;;5067262;28;20045;-90
2023/01/05 04:05:23;;;;;;;10.68;3.05;;;9.20;99.90;;;;;;5062230;28;20055;-84
2023/01/05 04:07:49;;;;;;;9.90;2.90;;;9.20;99.90;;;;;;5079797;28;20056;-89
2023/01/05 04:10:15;;;;;;;8.38;2.53;;;9.20;99.90;;;;;;5078388;28;20119;-88
2023/01/05 04:12:41;;;;;;;12.15;2.50;;;9.30;99.90;;;;;;5077896;28;20123;-83
2023/01/05 04:15:07;;;;;;;7.25;2.47;;;9.30;99.90;;;;;;5073196;28;20757;-88
2023/01/05 04:17:33;;;;;;;5.53;2.17;;;9.30;99.90;;;;;;5075427;28;20056;-86
2023/01/05 04:19:59;;;;;;;12.80;2.70;;;9.30;99.90;;;;;;5064218;28;20056;-88
2023/01/05 04:22:24;;;;;;;6.82;2.08;;;9.30;99.90;;;;;;5061882;28;20527;-90
2023/01/05 04:24:50;;;;;;;11.13;2.40;;;9.30;99.90;;;;;;5059639;28;20052;-85
2023/01/05 04:27:16;;;;;;;8.10;2.13;;;9.30;99.90;;;;;;5070508;28;20073;-85
2023/01/05 04:29:41;;;;;;;6.30;2.08;;;9.30;99.90;;;;;;5069275;28;20045;-82
2023/01/05 04:32:07;;;;;;;10.50;2.47;;;9.20;99.90;;;;;;5088014;28;20037;-84
2023/01/05 04:34:33;;;;;;;10.45;2.25;;;9.30;99.90;;;;;;5083893;28;20052;-91
2023/01/05 04:36:58;;;;;;;7.10;2.05;;;9.20;99.90;;;;;;5049485;28;20087;-93
2023/01/05 04:39:24;;;;;;;9.15;2.10;;;9.20;99.90;;;;;;5061861;28;20045;-85
2023/01/05 04:41:50;;;;;;;6.63;2.13;;;9.20;99.90;;;;;;5079312;28;20068;-85
2023/01/05 04:44:15;;;;;;;6.88;2.17;;;9.20;99.90;;;;;;5062854;28;20074;-89
2023/01/05 04:46:41;;;;;;;11.18;2.42;;;9.20;99.90;;;;;;5091344;28;20036;-87
2023/01/05 04:49:09;;;;;;;7.60;3.10;;;9.30;99.90;;;;;;5063456;28;20044;-86
2023/01/05 04:51:35;;;;;;;10.43;3.50;;;9.30;99.90;;;;;;5074607;28;20504;-87
2023/01/05 04:54:01;;;;;;;11.18;4.10;;;9.30;99.90;;;;;;5092739;28;20052;-84
2023/01/05 04:56:27;;;;;;;11.45;2.95;;;9.30;99.90;;;;;;5081299;28;20044;-87
2023/01/05 04:58:52;;;;;;;5.10;2.15;;;9.30;99.90;;;;;;5088996;28;20078;-88
2023/01/05 05:01:18;;;;;;;5.63;1.85;;;9.30;99.90;;;;;;5075027;28;20408;-84
2023/01/05 05:03:44;;;;;;;8.90;2.20;;;9.40;99.90;;;;;;5061938;28;20052;-89
2023/01/05 05:06:09;;;;;;;8.10;2.72;;;9.40;99.90;;;;;;5081389;28;20055;-93
2023/01/05 05:08:35;;;;;;;7.75;2.15;;;9.40;99.90;;;;;;5087818;28;20056;-88
2023/01/05 05:11:01;;;;;;;9.80;2.17;;;9.40;99.90;;;;;;5070783;28;20044;-86
2023/01/05 05:13:27;;;;;;;8.60;2.17;;;9.30;99.90;;;;;;5073259;28;20542;-87
2023/01/05 05:15:53;;;;;;;5.93;1.75;;;9.30;99.90;;;;;;5063007;28;20056;-85
2023/01/05 05:18:20;;;;;;;6.80;2.72;;;9.40;99.90;;;;;;5064921;28;20044;-84
2023/01/05 05:20:49;;;;;;;8.85;1.98;;;9.40;99.90;;;;;;5085576;28;20084;-87
2023/01/05 05:23:15;;;;;;;8.00;2.13;;;9.40;99.90;;;;;;5068359;28;20071;-85
2023/01/05 05:25:40;;;;;;;12.35;3.17;;;9.40;99.90;;;;;;5042666;28;20070;-86
2023/01/05 05:28:06;;;;;;;7.18;2.03;;;9.40;99.90;;;;;;5055613;28;20056;-89
2023/01/05 05:30:32;;;;;;;10.30;2.10;;;9.40;99.90;;;;;;5045683;28;20078;-86
2023/01/05 05:32:58;;;;;;;8.38;2.20;;;9.40;99.90;;;;;;5080463;28;20043;-90
2023/01/05 05:35:23;;;;;;;7.28;2.05;;;9.40;99.90;;;;;;5061361;28;20048;-88
2023/01/05 05:37:49;;;;;;;8.43;2.20;;;9.40;99.90;;;;;;5092725;28;20050;-88
2023/01/05 05:40:15;;;;;;;7.80;2.60;;;9.40;99.90;;;;;;5081957;28;20039;-88
2023/01/05 05:42:41;;;;;;;6.75;2.25;;;9.40;99.90;;;;;;5079152;28;20036;-85
2023/01/05 05:45:07;;;;;;;10.55;2.70;;;9.40;99.90;;;;;;5062767;28;20037;-91
2023/01/05 05:47:33;;;;;;;11.73;2.60;;;9.40;99.90;;;;;;5039768;28;20045;-88
2023/01/05 05:49:58;;;;;;;8.48;2.22;;;9.40;99.90;;;;;;5062483;28;20089;-86
2023/01/05 05:52:24;;;;;;;8.38;1.98;;;9.40;99.90;;;;;;5089448;28;20050;-85
2023/01/05 05:54:50;;;;;;;9.80;2.75;;;9.40;99.90;;;;;;5097143;28;20055;-89
2023/01/05 05:57:16;;;;;;;9.07;1.80;;;9.40;99.90;;;;;;5078584;28;20044;-86
2023/01/05 05:59:42;;;;;;;9.23;2.38;;;9.40;99.90;;;;;;5076390;28;20052;-86
2023/01/05 06:02:08;;;;;;;13.57;2.15;;;9.50;99.90;;;;;;5063671;28;20177;-89
2023/01/05 06:04:33;;;;;;;7.20;2.58;;;9.50;99.90;;;;;;5047766;28;20075;-84
2023/01/05 06:06:59;;;;;;;5.82;2.50;;;9.40;99.90;;;;;;5041451;28;20112;-85
2023/01/05 06:09:25;;;;;;;9.13;2.05;;;9.40;99.90;;;;;;5066895;28;20101;-93
2023/01/05 06:11:51;;;;;;;8.82;2.00;;;9.50;99.90;;;;;;5069165;28;20104;-91
2023/01/05 06:14:17;;;;;;;7.43;2.10;;;9.40;99.90;;;;;;5071734;28;20087;-85
2023/01/05 06:16:44;;;;;;;8.57;2.35;;;9.40;99.90;;;;;;5062813;28;20094;-88
2023/01/05 06:19:10;;;;;;;10.05;2.22;;;9.40;99.90;;;;;;5064678;28;20067;-87
2023/01/05 06:21:36;;;;;;;6.75;1.80;;;9.50;99.90;;;;;;5062665;28;20431;-87
2023/01/05 06:24:02;;;;;;;10.18;2.70;;;9.50;99.90;;;;;;5072573;28;20037;-82
2023/01/05 06:26:27;;;;;;;10.70;3.13;;;9.50;99.90;;;;;;5079001;28;20048;-88
2023/01/05 06:28:53;;;;;;;10.52;2.53;;;9.50;99.90;;;;;;5098402;28;20036;-87
2023/01/05 06:31:19;;;;;;;8.43;2.38;;;9.40;99.90;;;;;;5054668;28;20044;-84
2023/01/05 06:33:45;;;;;;;8.95;2.65;;;9.50;99.90;;;;;;5076693;28;20488;-89
2023/01/05 06:36:10;;;;;;;7.30;1.70;;;9.40;99.90;;;;;;5064272;28;20070;-85
2023/01/05 06:38:36;;;;;;;7.13;2.08;;;9.40;99.90;;;;;;5079172;28;20052;-85
2023/01/05 06:41:02;;;;;;;9.20;2.28;;;9.40;99.90;;;;;;5062954;28;20044;-87
2023/01/05 06:43:27;;;;;;;7.93;1.83;;;9.40;99.90;;;;;;5055765;28;20122;-86
2023/01/05 06:45:53;;;;;;;8.32;2.38;;;9.40;99.90;;;;;;5060017;28;20100;-89
2023/01/05 06:48:19;;;;;;;7.65;1.98;;;9.30;99.90;;;;;;5059991;28;20052;-88
2023/01/05 06:50:45;;;;;;;10.95;2.20;;;9.30;99.90;;;;;;5081443;28;20048;-87
2023/01/05 06:53:10;;;;;;;6.45;2.00;;;9.20;99.90;;;;;;5051927;28;20119;-87
2023/01/05 06:55:36;;;;;;;9.40;3.17;;;9.20;99.90;;;;;;5046316;28;20072;-83
2023/01/05 06:58:01;;;;;;;10.70;3.55;;;9.20;99.90;;;;;;5082059;28;20051;-83
2023/01/05 07:00:28;;;;;;;8.00;1.98;;;9.20;99.90;;;;;;5079291;28;20053;-83
2023/01/05 07:02:53;;;;;;;10.40;2.40;;;9.20;99.90;;;;;;5099434;28;20063;-88
2023/01/05 07:05:19;;;;;;;8.00;2.65;;;9.20;99.90;;;;;;5100680;28;20086;-84
2023/01/05 07:07:45;;;;;;;10.52;2.38;;;9.10;99.90;;;;;;5087341;28;20036;-83
2023/01/05 07:10:10;;;;;;;10.70;2.70;;;9.10;99.90;;;;;;5081316;28;20044;-85
2023/01/05 07:12:36;;;;;;;7.25;2.33;;;9.10;99.90;;;;;;5094426;28;20759;-84
2023/01/05 07:15:04;;;;;;;5.75;2.08;;;9.10;99.90;;;;;;5084822;28;20048;-85
2023/01/05 07:17:30;;;;;;;6.80;1.88;;;9.10;99.90;;;;;;5099191;28;20040;-84
2023/01/05 07:19:56;;;;;;;7.20;2.08;;;9.10;99.90;;;;;;5080615;28;20040;-84
2023/01/05 07:22:21;;;;;;;11.02;2.70;;;9.10;99.90;;;;;;5066520;28;20043;-85
2023/01/05 07:24:47;;;;;;;11.38;1.98;;;9.10;99.90;;;;;;5091152;28;20072;-86
2023/01/05 07:27:13;;;;;;;7.10;1.80;;;9.10;99.90;;;;;;5089104;28;20056;-87
2023/01/05 07:29:38;;;;;;;8.27;1.95;;;9.20;99.90;;;;;;5064389;28;20080;-87
2023/01/05 07:32:05;;;;;;;9.23;2.38;;;9.20;99.90;;;;;;5067549;28;20104;-86
2023/01/05 07:34:30;;;;;;;8.18;1.90;;;9.20;99.90;;;;;;5084088;28;20072;-87
2023/01/05 07:36:56;;;;;;;9.20;2.00;;;9.20;99.90;;;;;;5067262;28;20476;-84
2023/01/05 07:39:22;;;;;;;9.35;2.25;;;9.10;99.90;;;;;;5056245;28;20163;-86
2023/01/05 07:41:47;;;;;;;9.88;2.47;;;9.10;99.90;;;;;;5064597;28;20054;-86
2023/01/05 07:44:13;;;;;;;10.27;2.10;;;9.20;99.90;;;;;;5082853;28;20063;-86
2023/01/05 07:46:39;;;;;;;6.72;2.00;;;9.20;99.90;;;;;;5045958;28;20050;-88
2023/01/05 07:49:04;;;;;;;8.48;2.45;;;9.40;99.90;;;;;;5072696;28;20090;-86
2023/01/05 07:51:30;;;;;;;11.00;3.33;;;9.20;99.90;;;;;;5060648;28;20040;-87
2023/01/05 07:53:56;;;;;;;7.35;2.58;;;9.20;99.90;;;;;;5079416;28;20048;-86
2023/01/05 07:56:22;;;;;;;9.38;2.30;;;9.20;99.90;;;;;;5080170;28;20052;-89
2023/01/05 07:58:47;;;;;;;10.15;2.17;;;9.20;99.90;;;;;;5068230;28;20484;-86
2023/01/05 08:01:14;;;;;;;11.07;2.25;;;9.20;99.90;;;;;;5064396;28;20051;-86
2023/01/05 08:03:40;;;;;;;8.88;2.28;;;9.20;99.90;;;;;;5086549;28;20491;-89
2023/01/05 08:06:15;;;;;;;9.27;2.60;;;9.20;99.90;;;;;;5097252;28;20047;-88
2023/01/05 08:08:41;;;;;;;7.90;2.38;;;9.20;99.90;;;;;;5086547;28;20112;-83
2023/01/05 08:11:08;;;;;;;9.73;2.63;;;9.10;99.90;;;;;;5065797;28;20036;-84
2023/01/05 08:16:19;;;;;;;6.85;2.70;;;9.10;99.90;;;;;;5068691;28;20044;-85
2023/01/05 08:18:45;;;;;;;8.45;2.35;;;9.10;99.90;;;;;;5068171;28;20055;-88
2023/01/05 08:21:11;;;;;;;10.35;2.47;;;9.10;99.90;;;;;;5058609;28;20032;-83
2023/01/05 08:23:37;;;;;;;9.30;2.83;;;9.10;99.90;;;;;;5079021;28;20037;-82
2023/01/05 08:26:11;;;;;;;6.75;2.38;;;9.10;99.90;;;;;;5060087;28;20175;-81
2023/01/05 08:28:37;;;;;;;8.50;2.13;;;9.10;99.90;;;;;;5060178;28;20492;-83
2023/01/05 08:31:06;;;;;;;11.15;3.05;;;9.20;99.90;;;;;;5058824;28;20069;-88
2023/01/05 08:33:32;;;;;;;7.75;2.30;;;9.20;99.90;;;;;;5086798;28;20096;-79
2023/01/05 08:35:58;;;;;;;9.80;2.28;;;9.20;99.90;;;;;;5076687;28;20393;-89
2023/01/05 08:38:24;;;;;;;10.00;2.60;;;9.20;99.90;;;;;;5040423;28;20052;-82
2023/01/05 08:40:50;;;;;;;10.57;2.20;;;9.20;99.90;;;;;;5052704;28;20071;-85
2023/01/05 08:43:16;;;;;;;11.55;2.38;;;9.20;99.90;;;;;;5045344;28;20049;-83
2023/01/05 08:45:42;;;;;;;11.63;2.78;;;9.20;99.90;;;;;;5050815;28;20101;-83
2023/01/05 08:48:09;;;;;;;11.93;2.20;;;9.20;99.90;;;;;;5058998;28;20056;-87
2023/01/05 08:50:37;;;;;;;8.77;2.03;;;9.30;99.90;;;;;;5083519;28;20045;-81
2023/01/05 08:53:03;;;;;;;7.93;2.83;;;9.20;99.90;;;;;;5077907;28;20049;-86
2023/01/05 08:55:28;;;;;;;8.93;2.60;;;9.20;99.90;;;;;;5060462;28;20036;-88
2023/01/05 08:57:55;;;;;;;8.13;2.20;;;9.20;99.90;;;;;;5079982;28;20117;-84
2023/01/05 09:00:21;;;;;;;10.02;2.72;;;9.20;99.90;;;;;;5077292;28;20488;-81
2023/01/05 09:02:47;;;;;;;11.77;2.72;;;9.20;99.90;;;;;;5079979;28;20053;-88
2023/01/05 09:05:13;;;;;;;12.95;2.65;;;9.30;99.90;;;;;;5077443;28;20624;-83
2023/01/05 09:07:39;;;;;;;6.70;2.25;;;9.30;99.90;;;;;;5043551;28;20041;-84
2023/01/05 09:10:05;;;;;;;11.27;2.45;;;9.20;99.90;;;;;;5064413;28;20044;-84
2023/01/05 09:12:33;;;;;;;10.52;3.28;;;9.20;99.90;;;;;;5090588;28;20507;-83
2023/01/05 09:14:58;;;;;;;7.40;2.42;;;9.30;99.90;;;;;;5073080;28;20572;-87
2023/01/05 09:17:24;;;;;;;11.75;2.63;;;9.20;99.90;;;;;;5064333;28;20049;-91
2023/01/05 09:19:50;;;;;;;7.18;1.90;;;9.20;99.90;;;;;;5062165;28;20053;-85
2023/01/05 09:22:15;;;;;;;10.10;3.05;;;9.20;99.90;;;;;;5057925;28;20048;-87
2023/01/05 09:24:41;;;;;;;11.07;2.92;;;9.20;99.90;;;;;;5053283;28;20036;-87
2023/01/05 09:27:07;;;;;;;15.55;3.67;;;9.20;99.90;;;;;;5045329;28;20090;-86
2023/01/05 09:29:32;;;;;;;5.72;1.85;;;9.30;99.90;;;;;;5060837;28;20039;-88
2023/01/05 09:31:58;;;;;;;7.97;2.60;;;9.30;99.90;;;;;;5062393;28;20048;-86
2023/01/05 09:34:24;;;;;;;12.48;3.42;;;9.30;99.90;;;;;;5069450;28;20048;-83
2023/01/05 09:36:49;;;;;;;9.93;2.35;;;9.30;99.90;;;;;;5037583;28;20040;-87
2023/01/05 09:39:15;;;;;;;15.98;2.85;;;9.30;99.90;;;;;;5070578;28;20041;-82
2023/01/05 09:41:50;;;;;;;10.57;2.25;;;9.30;99.90;;;;;;5074147;28;20097;-80
2023/01/05 09:44:36;;;;;;;8.65;2.22;;;9.00;99.90;;;;;;5058884;28;20040;-87
2023/01/05 09:47:25;;;;;;;10.80;3.33;;;9.30;99.90;;;;;;5068407;28;20045;-83
2023/01/05 09:49:52;;;;;;;14.10;2.85;;;9.30;99.90;;;;;;5078338;28;20055;-89
2023/01/05 09:52:21;;;;;;;13.85;2.63;;;9.30;99.90;;;;;;5047478;28;20049;-84
2023/01/05 09:54:47;;;;;;;10.50;2.35;;;9.30;99.90;;;;;;5090475;28;20119;-82
2023/01/05 09:57:29;;;;;;;7.13;2.78;;;9.30;99.90;;;;;;5067704;28;20083;-80
2023/01/05 10:00:05;;;;;;;8.20;2.65;;;9.30;99.90;;;;;;5055912;28;20044;-83
2023/01/05 10:02:56;;;;;;;8.65;2.10;;;9.30;99.90;;;;;;5052910;28;20068;-84
2023/01/05 10:05:24;;;;;;;14.65;2.78;;;9.30;99.90;;;;;;5073189;28;20041;-90
2023/01/05 10:08:00;;;;;;;12.80;3.03;;;9.40;99.90;;;;;;5056270;28;20127;-79
2023/01/05 10:10:43;;;;;;;7.78;1.92;;;9.40;99.90;;;;;;5096890;28;20053;-86
2023/01/05 10:13:23;;;;;;;9.77;2.17;;;9.40;99.90;;;;;;5075268;28;20052;-82
2023/01/05 10:15:52;;;;;;;7.43;2.13;;;9.50;99.90;;;;;;5091545;28;20069;-83
2023/01/05 10:18:25;;;;;;;13.32;2.30;;;9.50;99.90;;;;;;5064853;28;20111;-80
2023/01/05 10:21:14;;;;;;;6.72;2.05;;;9.50;99.90;;;;;;5048538;28;20099;-81
2023/01/05 10:23:59;;;;;;;8.77;1.92;;;9.50;99.90;;;;;;5074785;28;20048;-82
2023/01/05 10:26:44;;;;;;;8.93;2.60;;;9.50;99.90;;;;;;5055715;28;20132;-82
2023/01/05 10:29:12;;;;;;;7.18;2.10;;;9.50;99.90;;;;;;5109087;28;20055;-82
2023/01/05 10:31:45;;;;;;;10.10;2.67;;;9.50;99.90;;;;;;5091640;28;20508;-87
2023/01/05 10:34:42;;;;;;;12.27;2.75;;;9.50;99.90;;;;;;5055997;28;20049;-78
2023/01/05 10:37:21;;;;;;;7.57;2.65;;;9.50;99.90;;;;;;5047468;28;20041;-80
2023/01/05 10:40:21;;;;;;;9.23;2.53;;;9.50;99.90;;;;;;5057199;28;20048;-82
2023/01/05 10:43:12;;;;;;;11.82;2.40;;;9.50;99.90;;;;;;5063911;28;20074;-88
2023/01/05 10:45:39;;;;;;;8.82;2.67;;;9.50;99.90;;;;;;5078149;28;20135;-80
2023/01/05 10:48:12;;;;;;;8.90;2.47;;;9.50;99.90;;;;;;5092085;28;20045;-86
2023/01/05 10:50:41;;;;;;;8.75;2.65;;;9.50;99.90;;;;;;5066353;28;20078;-86
2023/01/05 10:53:17;;;;;;;10.73;2.15;;;9.50;99.90;;;;;;5078433;28;20047;-90
2023/01/05 10:55:53;;;;;;;;;;;9.50;99.90;;;;;;5049140;28;20135;-85
2023/01/05 10:58:28;;;;;;;7.70;1.85;;;9.50;99.90;;;;;;5080807;28;19920;-82
2023/01/05 11:00:57;;;;;;;6.63;1.67;;;9.50;99.90;;;;;;5050104;28;20143;-86
2023/01/05 11:03:44;;;;;;;6.72;1.70;;;9.50;99.90;;;;;;5088714;28;20121;-88
2023/01/05 11:06:32;;;;;;;6.63;1.80;;;9.50;99.90;;;;;;5059860;28;20407;-83
2023/01/05 11:09:19;;;;;;;6.78;1.58;;;9.60;99.90;;;;;;5083247;28;20531;-86
2023/01/05 11:12:19;;;;;;;7.75;1.77;;;9.50;99.90;;;;;;5080443;28;20041;-81
2023/01/05 11:14:50;;;;;;;8.38;1.58;;;9.60;99.90;;;;;;5077530;28;20060;-90
2023/01/05 11:17:20;;;;;;;4.07;1.38;;;9.60;99.90;;;;;;5061515;28;20412;-87
2023/01/05 11:19:49;;;;;;;6.95;2.00;;;9.60;99.90;;;;;;5078107;28;20051;-81
2023/01/05 11:22:34;;;;;;;5.13;1.63;;;9.60;99.90;;;;;;5065941;28;20072;-88
2023/01/05 11:25:27;;;;;;;8.45;1.75;;;9.60;99.90;;;;;;5084564;28;20052;-83
2023/01/05 11:28:08;;;;;;;4.32;1.80;;;9.60;99.90;;;;;;5090945;28;20052;-91
2023/01/05 11:30:34;;;;;;;6.57;1.55;;;9.60;99.90;;;;;;5088324;28;20151;-88
2023/01/05 11:33:00;;;;;;;7.47;1.67;;;9.70;99.90;;;;;;5041376;28;20067;-88
2023/01/05 11:35:38;;;;;;;4.95;1.90;;;9.70;99.90;;;;;;5070604;28;20044;-82
2023/01/05 11:38:05;;;;;;;6.00;1.30;;;9.70;99.90;;;;;;5092897;28;20037;-81
2023/01/05 11:40:34;;;;;;;7.78;1.73;;;9.70;99.90;;;;;;5057669;28;20043;-84
2023/01/05 11:43:08;;;;;;;5.78;1.45;;;9.80;99.90;;;;;;5078132;28;20040;-82
2023/01/05 11:45:44;;;;;;;5.20;1.98;;;9.80;99.90;;;;;;5074054;28;20048;-80
2023/01/05 11:48:18;;;;;;;6.25;1.33;;;9.80;99.90;;;;;;5070926;28;20400;-81
2023/01/05 11:50:45;;;;;;;6.60;1.75;;;9.80;99.90;;;;;;5045913;28;20083;-82
2023/01/05 11:53:35;;;;;;;6.28;1.42;;;9.80;99.90;;;;;;5096985;28;20088;-82
2023/01/05 11:56:21;;;;;;;6.82;1.73;;;9.90;99.90;;;;;;5066677;28;20057;-86
2023/01/05 11:58:53;;;;;;;8.40;1.70;;;9.90;99.90;;;;;;5062664;28;20609;-82
2023/01/05 12:01:38;;;;;;;5.63;1.58;;;9.90;99.90;;;;;;5085349;28;20036;-84
2023/01/05 12:04:18;;;;;;;6.72;2.30;;;9.90;99.90;;;;;;5061850;28;20060;-81
2023/01/05 12:06:51;;;;;;;5.40;1.55;;;9.90;99.90;;;;;;5080087;28;20052;-85
2023/01/05 12:10:03;;;;;;;3.78;1.42;;;9.80;99.90;;;;;;5066112;28;20085;-81
2023/01/05 12:12:52;;;;;;;6.03;1.80;;;9.80;99.90;;;;;;5040532;28;20062;-79
2023/01/05 12:15:17;;;;;;;6.68;2.22;;;9.70;99.90;;;;;;5055968;28;20061;-82
2023/01/05 12:18:11;;;;;;;5.78;1.83;;;9.60;99.90;;;;;;5060541;28;20053;-82
2023/01/05 12:20:52;;;;;;;9.10;1.80;;;9.60;99.90;;;;;;5073470;28;20032;-83
2023/01/05 12:23:47;;;;;;;4.53;1.67;;;9.70;99.90;;;;;;5050946;28;20076;-82
2023/01/05 12:26:48;;;;;;;6.00;1.83;;;9.70;99.90;;;;;;5069644;28;20049;-83
2023/01/05 12:29:31;;;;;;;9.35;1.83;;;9.70;99.90;;;;;;5040490;28;20056;-82
2023/01/05 12:32:26;;;;;;;7.22;2.10;;;9.80;99.90;;;;;;5061170;28;20037;-80
2023/01/05 12:35:06;;;;;;;8.30;1.85;;;9.80;99.90;;;;;;5047410;28;20596;-81
2023/01/05 12:38:20;;;;;;;6.47;1.98;;;9.90;99.90;;;;;;5049019;28;20063;-83
2023/01/05 12:40:49;;;;;;;7.25;2.03;;;9.90;99.90;;;;;;5050828;28;20055;-84
2023/01/05 12:43:19;;;;;;;8.05;1.90;;;9.90;99.90;;;;;;5039910;28;20041;-81
2023/01/05 12:45:48;;;;;;;4.85;1.60;;;9.90;99.90;;;;;;5067021;28;20052;-82
2023/01/05 12:48:20;;;;;;;14.90;2.00;;;9.90;99.90;;;;;;5064874;28;20137;-84
2023/01/05 12:50:52;;;;;;;9.55;2.30;;;9.90;99.90;;;;;;5096144;28;20041;-81
2023/01/05 12:53:39;;;;;;;6.93;1.77;;;10.00;99.90;;;;;;5060577;28;20029;-82
2023/01/05 12:56:25;;;;;;;7.78;1.85;;;9.90;99.90;;;;;;5043172;28;20080;-85
2023/01/05 12:58:58;;;;;;;;;;;9.90;99.90;;;;;;5058653;28;20258;-80
2023/01/05 13:01:28;;;;;;;7.97;1.92;;;9.90;99.90;;;;;;5051530;28;19920;-86
2023/01/05 13:04:01;;;;;;;7.80;1.90;;;9.90;99.90;;;;;;5074419;28;20052;-84
2023/01/05 13:06:36;;;;;;;7.70;2.00;;;9.80;99.90;;;;;;5070359;28;20052;-82
2023/01/05 13:09:12;;;;;;;7.35;2.15;;;9.80;99.90;;;;;;5070013;28;20047;-81
2023/01/05 13:11:45;;;;;;;8.20;2.42;;;9.70;99.90;;;;;;5075141;28;20068;-82
2023/01/05 13:14:28;;;;;;;4.93;1.92;;;9.70;99.90;;;;;;5067249;28;20052;-81
2023/01/05 13:17:10;;;;;;;7.75;1.92;;;9.60;99.90;;;;;;5056331;28;20048;-83
2023/01/05 13:19:46;;;;;;;5.63;1.85;;;9.60;99.90;;;;;;5074790;28;20060;-86
2023/01/05 13:22:25;;;;;;;6.80;2.47;;;9.60;99.90;;;;;;5050024;28;20097;-82
2023/01/05 13:25:00;;;;;;;7.03;3.22;;;9.50;99.90;;;;;;5064473;28;20065;-83
2023/01/05 13:27:28;;;;;;;10.80;2.40;;;9.50;99.90;;;;;;5052284;28;20499;-79
2023/01/05 13:29:58;;;;;;;6.80;1.98;;;9.50;99.90;;;;;;5053118;28;20056;-80
2023/01/05 13:32:48;;;;;;;6.95;2.38;;;9.50;99.90;;;;;;5088659;28;20044;-81
2023/01/05 13:35:29;;;;;;;8.10;2.22;;;9.60;99.90;;;;;;5064174;28;20052;-81
2023/01/05 13:38:29;;;;;;;8.88;1.83;;;9.60;99.90;;;;;;5055141;28;20041;-81
2023/01/05 13:41:06;;;;;;;6.55;2.92;;;9.60;99.90;;;;;;5063819;28;20172;-79
2023/01/05 13:43:58;;;;;;;7.82;2.03;;;9.60;99.90;;;;;;5057689;28;20051;-81
2023/01/05 13:46:56;;;;;;;11.85;2.95;;;9.60;99.90;;;;;;5042858;28;20082;-80
2023/01/05 13:49:59;;;;;;;11.00;2.33;;;9.60;99.90;;;;;;5061801;28;20224;-79
2023/01/05 13:52:52;;;;;;;13.95;2.55;;;9.60;99.90;;;;;;5089647;28;20045;-78